Time;durP1;ratioP1;P1;durP2;ratioP2;P2;SDS_P1;SDS_P2;PMS_P1;PMS_P2;Temp;Humidity;BMP_temperature;BMP_pressure;BME280_temperature;BME280_humidity;BME280_pressure;Samples;Min_cycle;Max_cycle;Signal;HPM_P1;HPM_P2
2023/07/25 00:00:15;;;;;;;;;;;22.00;45.00;;;21.20;44.79;99810.91;12251891;19;19932;-88
2023/07/25 00:04:17;;;;;;;;;;;22.00;45.00;;;21.24;44.79;99826.47;12251647;19;19967;-88
2023/07/25 00:08:18;;;;;;;;;;;21.90;45.10;;;21.15;44.90;99826.53;12248052;19;19918;-88
2023/07/25 00:12:20;;;;;;;;;;;21.80;45.00;;;21.05;45.04;99817.13;12249328;19;19986;-88
2023/07/25 00:16:21;;;;;;;;;;;21.80;45.10;;;21.11;45.16;99841.13;12246787;19;19918;-88
2023/07/25 00:20:23;;;;;;;;;;;21.80;45.10;;;20.99;45.31;99834.59;12247995;19;19922;-88
2023/07/25 00:24:24;;;;;;;;;;;21.70;45.10;;;21.00;45.29;99839.69;12252465;19;19926;-88
2023/07/25 00:28:27;;;;;;;;;;;21.70;45.10;;;21.03;45.36;99848.31;12251086;19;19974;-88
2023/07/25 00:32:28;;;;;;;;;;;21.60;45.10;;;21.00;45.06;99849.50;12247734;19;19919;-88
2023/07/25 00:36:30;;;;;;;;;;;21.80;45.50;;;20.87;45.01;99828.81;12248263;19;19927;-88
2023/07/25 00:40:31;;;;;;;;;;;21.70;45.30;;;20.96;45.23;99851.69;12251962;19;19923;-88
2023/07/25 00:44:32;;;;;;;;;;;21.60;45.50;;;20.91;45.51;99846.06;12250891;19;19926;-88
2023/07/25 00:48:34;;;;;;;;;;;21.60;45.30;;;20.80;45.64;99827.88;12250130;19;19915;-88
2023/07/25 00:52:36;;;;;;;;;;;21.50;45.30;;;20.87;45.78;99849.22;12247978;19;19919;-88
2023/07/25 00:56:38;;;;;;;;;;;21.50;45.40;;;20.86;45.51;99852.91;12247604;19;19915;-88
2023/07/25 01:00:39;;;;;;;;;;;21.50;45.40;;;20.76;45.49;99837.16;12249751;19;19922;-88
2023/07/25 01:04:41;;;;;;;;;;;21.60;45.50;;;20.76;45.74;99851.25;12249045;19;19906;-88
2023/07/25 01:08:56;;;;;;;;;;;21.50;45.50;;;20.74;45.90;99860.41;12248412;19;20242;-88
2023/07/25 01:12:57;;;;;;;;;;;21.40;45.50;;;20.70;45.90;99859.09;12247309;19;19907;-88
2023/07/25 01:17:25;;;;;;;;;;;21.40;45.50;;;20.67;45.99;99868.22;12241317;19;19914;-88
2023/07/25 01:21:27;;;;;;;;;;;21.40;45.60;;;20.59;45.86;99862.94;12249425;19;20588;-88
2023/07/25 01:25:28;;;;;;;;;;;21.30;45.60;;;20.54;45.81;99870.59;12253231;19;19907;-88
2023/07/25 01:29:30;;;;;;;;;;;21.30;45.50;;;20.52;45.96;99877.84;12262140;19;19926;-88
2023/07/25 01:33:32;;;;;;;;;;;21.20;45.50;;;20.50;46.08;99875.38;12254929;19;19914;-88
2023/07/25 01:37:33;;;;;;;;;;;21.20;45.70;;;20.44;45.67;99881.38;12254728;19;19919;-88
2023/07/25 01:41:35;;;;;;;;;;;21.20;45.60;;;20.41;46.13;99879.03;12259547;19;20340;-88
2023/07/25 01:45:37;;;;;;;;;;;21.10;45.60;;;20.29;45.84;99865.31;12259136;19;19931;-88
2023/07/25 01:49:38;;;;;;;;;;;21.10;45.70;;;20.17;46.25;99839.31;12258324;19;19926;-88
2023/07/25 01:53:40;;;;;;;;;;;21.10;45.80;;;20.38;46.17;99886.50;12255542;19;19915;-88
2023/07/25 01:57:41;;;;;;;;;;;21.10;45.80;;;20.37;46.14;99882.22;12255164;19;19922;-88
2023/07/25 02:01:43;;;;;;;;;;;21.10;45.70;;;20.28;46.01;99876.94;12259175;19;20331;-88
2023/07/25 02:05:45;;;;;;;;;;;21.00;45.70;;;20.30;46.13;99890.00;12257755;19;20371;-88
2023/07/25 02:09:46;;;;;;;;;;;21.00;45.70;;;20.26;46.36;99884.22;12259541;19;19918;-88
2023/07/25 02:13:48;;;;;;;;;;;21.00;45.80;;;20.25;46.17;99884.38;12257087;19;19918;-88
2023/07/25 02:17:50;;;;;;;;;;;21.00;46.00;;;20.19;46.22;99872.59;12255776;19;19922;-88
2023/07/25 02:21:52;;;;;;;;;;;21.00;45.90;;;20.24;46.10;99888.03;12258134;19;19975;-88
2023/07/25 02:25:53;;;;;;;;;;;21.00;45.90;;;20.15;46.51;99887.22;12256799;19;20266;-88
2023/07/25 02:29:55;;;;;;;;;;;21.00;46.10;;;20.14;46.44;99901.44;12257764;19;20451;-88
2023/07/25 02:33:56;;;;;;;;;;;21.00;46.10;;;20.11;46.53;99912.38;12257847;19;19956;-88
2023/07/25 02:37:58;;;;;;;;;;;20.90;46.20;;;20.01;46.37;99919.66;12251957;19;19970;-87
2023/07/25 02:41:59;;;;;;;;;;;20.80;46.40;;;19.98;46.35;99923.50;12257731;19;19938;-87
2023/07/25 02:46:01;;;;;;;;;;;20.80;46.50;;;19.91;46.69;99922.50;12254533;19;19903;-88
2023/07/25 02:50:03;;;;;;;;;;;20.70;46.60;;;19.80;46.83;99918.34;12256794;19;20286;-87
2023/07/25 02:54:05;;;;;;;;;;;20.70;46.70;;;19.75;46.63;99918.00;12253872;19;19921;-87
2023/07/25 02:58:07;;;;;;;;;;;20.60;46.60;;;19.74;46.92;99929.63;12253369;19;19921;-87
2023/07/25 03:02:10;;;;;;;;;;;20.60;46.50;;;19.55;47.03;99911.31;12258620;19;19923;-87
2023/07/25 03:06:12;;;;;;;;;;;20.50;46.50;;;19.44;46.67;99893.91;12254595;19;19922;-88
2023/07/25 03:10:13;;;;;;;;;;;20.50;46.60;;;19.71;47.11;99942.34;12256271;19;20365;-87
2023/07/25 03:14:15;;;;;;;;;;;20.50;46.70;;;19.65;46.83;99935.84;12254089;19;19918;-87
2023/07/25 03:18:16;;;;;;;;;;;20.50;46.70;;;19.58;47.12;99924.25;12252025;19;19922;-87
2023/07/25 03:22:19;;;;;;;;;;;20.50;46.70;;;19.71;46.97;99951.09;12252827;19;19914;-87
2023/07/25 03:26:20;;;;;;;;;;;20.50;46.70;;;19.71;46.91;99937.84;12250687;19;19919;-87
2023/07/25 03:30:22;;;;;;;;;;;20.50;46.80;;;19.71;47.05;99943.16;12253084;19;19990;-87
2023/07/25 03:34:24;;;;;;;;;;;20.50;46.90;;;19.68;46.82;99938.19;12251151;19;20257;-87
2023/07/25 03:38:25;;;;;;;;;;;20.60;47.00;;;19.74;46.91;99956.09;12254323;19;19917;-87
2023/07/25 03:42:27;;;;;;;;;;;20.50;46.80;;;19.46;47.13;99907.84;12255506;19;20264;-87
2023/07/25 03:46:28;;;;;;;;;;;20.50;46.90;;;19.47;47.08;99906.84;12251011;19;20526;-86
2023/07/25 03:50:30;;;;;;;;;;;20.50;47.10;;;19.55;47.16;99932.50;12253279;19;20337;-87
2023/07/25 03:54:32;;;;;;;;;;;20.40;46.90;;;19.50;47.02;99925.06;12249886;19;19919;-87
2023/07/25 03:58:34;;;;;;;;;;;20.40;47.00;;;19.57;47.09;99925.22;12251737;19;19918;-87
2023/07/25 04:02:35;;;;;;;;;;;20.40;46.90;;;19.59;47.57;99933.84;12254423;19;19915;-87
2023/07/25 04:06:37;;;;;;;;;;;20.40;46.90;;;19.55;47.39;99933.34;12251714;19;19937;-87
2023/07/25 04:10:39;;;;;;;;;;;20.40;46.90;;;19.42;47.37;99902.03;12253660;19;19914;-88
2023/07/25 04:14:41;;;;;;;;;;;20.40;46.90;;;19.50;47.45;99925.06;12248994;19;19911;-87
2023/07/25 04:18:43;;;;;;;;;;;20.40;47.10;;;19.55;47.31;99953.69;12254651;19;19948;-87
2023/07/25 04:22:44;;;;;;;;;;;20.40;47.30;;;19.58;47.61;99961.34;12253406;19;19926;-87
2023/07/25 04:26:46;;;;;;;;;;;20.40;47.00;;;19.45;47.47;99938.78;12251669;19;19946;-87
2023/07/25 04:30:47;;;;;;;;;;;20.40;46.90;;;19.53;47.49;99961.00;12249496;19;20260;-86
2023/07/25 04:34:49;;;;;;;;;;;20.30;46.80;;;19.41;47.51;99953.31;12247759;19;19978;-87
2023/07/25 04:38:51;;;;;;;;;;;20.30;46.80;;;19.44;47.58;99958.31;12253418;19;19918;-87
2023/07/25 04:42:52;;;;;;;;;;;20.30;46.80;;;19.45;47.82;99956.50;12253478;19;19943;-86
2023/07/25 04:46:54;;;;;;;;;;;20.30;46.80;;;19.15;47.87;99926.13;12249722;19;19918;-86
2023/07/25 04:50:56;;;;;;;;;;;20.30;46.80;;;19.34;47.79;99957.63;12253297;19;19914;-87
2023/07/25 04:54:58;;;;;;;;;;;20.20;46.80;;;19.42;47.62;99964.78;12252663;19;19934;-87
2023/07/25 04:59:00;;;;;;;;;;;20.20;47.00;;;19.44;47.49;99976.84;12256481;19;19930;-87
2023/07/25 05:03:02;;;;;;;;;;;20.20;47.00;;;19.38;47.50;99948.34;12274773;19;19922;-86
2023/07/25 05:07:04;;;;;;;;;;;20.30;47.10;;;19.28;47.67;99925.66;12273353;19;19990;-86
2023/07/25 05:11:06;;;;;;;;;;;20.30;47.10;;;19.42;47.85;99952.34;12272852;19;20365;-86
2023/07/25 05:15:08;;;;;;;;;;;20.30;47.20;;;19.14;47.81;99903.28;12272338;19;19918;-86
2023/07/25 05:19:09;;;;;;;;;;;20.30;47.00;;;19.41;47.81;99953.31;12272171;19;19914;-86
2023/07/25 05:23:11;;;;;;;;;;;20.30;47.00;;;19.18;48.00;99905.44;12276645;19;19915;-86
2023/07/25 05:27:12;;;;;;;;;;;20.30;47.10;;;19.45;47.67;99941.44;12273836;19;19962;-86
2023/07/25 05:31:14;;;;;;;;;;;20.30;47.20;;;19.44;47.85;99937.13;12276162;19;19910;-86
2023/07/25 05:35:16;;;;;;;;;;;20.30;47.60;;;19.41;47.79;99947.19;12274577;19;19931;-85
2023/07/25 05:39:17;;;;;;;;;;;20.30;47.20;;;19.24;47.83;99925.97;12275707;19;19911;-86
2023/07/25 05:43:19;;;;;;;;;;;20.30;47.10;;;19.45;48.01;99953.84;12274432;19;19934;-86
2023/07/25 05:47:20;;;;;;;;;;;20.30;47.20;;;19.36;48.21;99939.75;12274920;19;20242;-86
2023/07/25 05:51:22;;;;;;;;;;;20.30;47.50;;;19.48;48.27;99980.00;12267643;19;19931;-86
2023/07/25 05:55:23;;;;;;;;;;;20.30;47.40;;;19.33;47.96;99985.06;12269279;19;19919;-86
2023/07/25 05:59:25;;;;;;;;;;;20.30;47.50;;;19.50;47.90;100035.47;12267437;19;19934;-86
2023/07/25 06:03:26;;;;;;;;;;;20.40;47.40;;;19.50;48.32;100054.00;12267987;19;19914;-86
2023/07/25 06:07:28;;;;;;;;;;;20.40;47.40;;;19.47;48.39;100033.97;12266579;19;19915;-86
2023/07/25 06:11:29;;;;;;;;;;;20.40;47.30;;;19.59;48.34;100045.09;12261242;19;20243;-87
2023/07/25 06:15:34;;;;;;;;;;;20.50;47.30;;;19.60;48.38;100036.16;12253690;19;19928;-87
2023/07/25 06:19:35;;;;;;;;;;;20.50;47.30;;;19.51;48.43;100015.94;12254210;19;19922;-88
2023/07/25 06:23:36;;;;;;;;;;;20.60;47.30;;;19.54;48.11;100029.69;12256206;19;19930;-87
2023/07/25 06:27:38;;;;;;;;;;;20.60;47.40;;;19.66;48.27;100040.88;12249899;19;19918;-87
2023/07/25 06:31:40;;;;;;;;;;;20.60;47.40;;;19.67;48.28;100043.34;12253664;19;20326;-85
2023/07/25 06:35:42;;;;;;;;;;;20.60;47.50;;;19.65;48.25;100055.03;12252137;19;19925;-87
2023/07/25 06:39:43;;;;;;;;;;;20.60;47.40;;;19.71;48.17;100053.59;12255451;19;19919;-86
2023/07/25 06:43:45;;;;;;;;;;;20.60;47.40;;;19.78;48.25;100058.09;12255243;19;19922;-86
2023/07/25 06:47:46;;;;;;;;;;;20.60;47.30;;;19.77;48.46;100059.09;12249675;19;19915;-87
2023/07/25 06:51:48;;;;;;;;;;;20.70;47.30;;;19.77;48.24;100034.44;12256828;19;19931;-85
2023/07/25 06:55:50;;;;;;;;;;;20.70;47.50;;;19.94;48.67;100035.31;12247935;19;20329;-84
2023/07/25 06:59:51;;;;;;;;;;;20.80;47.40;;;20.00;48.32;100034.66;12258190;19;19911;-84
2023/07/25 07:03:54;;;;;;;;;;;20.90;48.00;;;19.94;48.70;100003.50;12259505;19;19927;-85
2023/07/25 07:07:55;;;;;;;;;;;21.00;47.70;;;20.21;48.54;100007.66;12256624;19;19921;-85
2023/07/25 07:11:57;;;;;;;;;;;21.10;47.60;;;20.09;48.39;99978.84;12254606;19;19931;-85
2023/07/25 07:15:58;;;;;;;;;;;21.20;47.70;;;20.38;48.73;100019.09;12254982;19;20314;-85
2023/07/25 07:20:00;;;;;;;;;;;21.30;47.60;;;20.44;48.50;100024.59;12256631;19;19929;-85
2023/07/25 07:24:02;;;;;;;;;;;21.30;47.50;;;20.42;48.27;100008.00;12252523;19;20592;-85
2023/07/25 07:28:04;;;;;;;;;;;21.50;47.60;;;20.52;48.17;100021.94;12253499;19;19911;-85
2023/07/25 07:32:06;;;;;;;;;;;21.50;47.50;;;20.58;48.61;100024.91;12257402;19;20258;-85
2023/07/25 07:36:08;;;;;;;;;;;21.50;47.30;;;20.50;48.54;100001.88;12255860;19;19952;-85
2023/07/25 07:40:12;;;;;;;;;;;21.40;48.30;;;20.68;48.62;100007.84;12255794;19;19976;-82
2023/07/25 07:44:13;;;;;;;;;;;21.60;47.50;;;20.67;48.72;99994.75;12245423;19;19967;-83
2023/07/25 07:48:15;;;;;;;;;;;21.70;47.60;;;20.96;48.68;100020.75;12247892;19;19934;-83
2023/07/25 07:52:16;;;;;;;;;;;21.90;47.50;;;20.83;48.79;99981.44;12250530;19;19922;-82
2023/07/25 07:56:18;;;;;;;;;;;22.00;47.30;;;21.15;48.88;100023.00;12243561;19;19929;-81
2023/07/25 08:00:20;;;;;;;;;;;22.10;47.40;;;21.26;48.68;100002.41;12250505;19;19985;-83
2023/07/25 08:04:21;;;;;;;;;;;22.20;47.60;;;21.26;48.63;99994.44;12248934;19;19961;-82
2023/07/25 08:08:23;;;;;;;;;;;22.30;47.10;;;21.29;48.87;99986.94;12253769;19;19918;-83
2023/07/25 08:12:24;;;;;;;;;;;22.30;46.90;;;21.27;48.88;99980.97;12253260;19;20012;-83
2023/07/25 08:16:26;;;;;;;;;;;22.30;46.80;;;21.37;48.54;99989.59;12249416;19;19956;-82
2023/07/25 08:20:27;;;;;;;;;;;22.40;47.00;;;21.46;48.77;99974.44;12251611;19;19910;-83
2023/07/25 08:24:29;;;;;;;;;;;22.50;47.30;;;21.68;48.59;99990.59;12251301;19;19925;-83
2023/07/25 08:28:30;;;;;;;;;;;22.70;47.70;;;21.81;48.51;99996.16;12251822;19;19951;-83
2023/07/25 08:32:32;;;;;;;;;;;22.80;46.80;;;21.91;48.57;100003.94;12246242;19;19926;-82
2023/07/25 08:36:33;;;;;;;;;;;22.90;46.60;;;21.86;48.39;99993.81;12245474;19;20287;-84
2023/07/25 08:40:35;;;;;;;;;;;22.90;46.50;;;21.92;48.29;100003.75;12248599;19;19923;-83
2023/07/25 08:44:39;;;;;;;;;;;23.00;46.40;;;22.01;48.91;100016.00;12250220;19;19967;-84
2023/07/25 08:48:42;;;;;;;;;;;23.00;46.50;;;22.13;48.80;100019.06;12250534;19;19925;-84
2023/07/25 08:52:49;;;;;;;;;;;23.10;46.50;;;22.23;48.67;100018.88;12251856;19;19930;-83
2023/07/25 08:56:51;;;;;;;;;;;23.20;46.40;;;22.04;48.68;99978.41;12250599;19;20411;-83
2023/07/25 09:00:53;;;;;;;;;;;23.20;45.90;;;22.29;48.35;100010.16;12249962;19;19942;-84
2023/07/25 09:04:55;;;;;;;;;;;23.30;45.80;;;22.38;48.64;100018.91;12249611;19;20276;-84
2023/07/25 09:08:56;;;;;;;;;;;23.40;45.90;;;22.37;48.41;100017.25;12251465;19;19919;-83
2023/07/25 09:12:57;;;;;;;;;;;23.40;45.70;;;22.45;48.17;100020.66;12252619;19;19919;-84
2023/07/25 09:16:59;;;;;;;;;;;23.40;45.80;;;22.43;48.30;100008.56;12249256;19;19947;-83
2023/07/25 09:21:01;;;;;;;;;;;23.50;46.00;;;22.57;48.07;100017.56;12252363;19;19966;-83
2023/07/25 09:25:07;;;;;;;;;;;23.60;45.00;;;22.65;48.52;100020.16;12249328;19;19923;-84
2023/07/25 09:29:09;;;;;;;;;;;23.60;45.60;;;22.73;48.44;100031.56;12253652;19;19919;-84
2023/07/25 09:33:27;;;;;;;;;;;23.70;45.60;;;22.74;48.33;100037.72;12248159;19;19979;-84
2023/07/25 09:37:29;;;;;;;;;;;23.80;45.30;;;22.81;48.44;100045.81;12249923;19;19911;-84
2023/07/25 09:41:34;;;;;;;;;;;23.90;45.30;;;22.91;47.94;100057.84;12246957;19;19933;-83
2023/07/25 09:45:36;;;;;;;;;;;23.90;44.80;;;22.94;48.23;100036.19;12249912;19;20368;-83
2023/07/25 09:49:38;;;;;;;;;;;24.00;45.00;;;22.90;47.86;100016.28;12260524;19;19935;-83
2023/07/25 09:53:44;;;;;;;;;;;24.00;45.00;;;23.01;48.11;100027.50;12258818;19;19919;-83
2023/07/25 09:57:46;;;;;;;;;;;24.00;44.60;;;23.00;47.90;100020.53;12256264;19;19922;-83
2023/07/25 10:01:49;;;;;;;;;;;24.00;44.70;;;22.95;48.14;100013.88;12259856;19;19945;-84
2023/07/25 10:05:51;;;;;;;;;;;24.00;44.80;;;22.97;47.86;100014.53;12258025;19;20256;-84
2023/07/25 10:09:54;;;;;;;;;;;24.00;44.70;;;23.05;47.72;100028.78;12257888;19;19919;-84
2023/07/25 10:13:56;;;;;;;;;;;24.00;44.80;;;23.00;47.82;100007.19;12256194;19;20537;-85
2023/07/25 10:18:15;;;;;;;;;;;24.10;44.50;;;23.06;47.65;100011.78;12255236;19;20341;-84
2023/07/25 10:22:32;;;;;;;;;;;24.10;44.80;;;23.12;47.57;100021.72;12259168;19;20000;-84
2023/07/25 10:26:34;;;;;;;;;;;24.10;44.90;;;23.12;47.50;100021.72;12252308;19;19914;-84
2023/07/25 10:30:45;;;;;;;;;;;24.10;44.60;;;23.14;47.43;100019.69;12257965;19;20291;-83
2023/07/25 10:35:02;;;;;;;;;;;24.10;44.80;;;23.18;47.84;100035.13;12250418;19;20309;-84
2023/07/25 10:39:06;;;;;;;;;;;24.10;44.80;;;23.17;47.83;100024.66;12259694;19;19918;-84
2023/07/25 10:43:08;;;;;;;;;;;24.20;44.80;;;23.08;47.74;100018.59;12255631;19;19911;-85
2023/07/25 10:47:44;;;;;;;;;;;24.20;44.90;;;23.25;47.66;100053.03;12255475;19;19923;-84
2023/07/25 10:51:45;;;;;;;;;;;24.20;44.60;;;23.23;47.26;100045.25;12257960;19;20316;-85
2023/07/25 10:56:05;;;;;;;;;;;24.20;44.50;;;23.24;47.62;100022.09;12256630;19;19922;-84
2023/07/25 11:00:10;;;;;;;;;;;24.10;44.50;;;23.26;47.25;100028.88;12255596;19;19911;-84
2023/07/25 11:04:30;;;;;;;;;;;24.20;44.50;;;23.28;47.33;100026.03;12258640;19;19947;-83
2023/07/25 11:08:36;;;;;;;;;;;24.20;44.40;;;23.19;47.36;100011.97;12258117;19;20386;-84
2023/07/25 11:12:38;;;;;;;;;;;24.20;44.50;;;23.34;47.07;100011.97;12258010;19;19919;-85
2023/07/25 11:16:40;;;;;;;;;;;24.30;44.50;;;23.41;47.23;100004.88;12256160;19;19925;-84
2023/07/25 11:20:42;;;;;;;;;;;24.30;44.40;;;23.52;47.39;100006.22;12258563;19;19930;-84
2023/07/25 11:24:47;;;;;;;;;;;24.40;44.60;;;23.57;47.54;99996.69;12257089;19;19922;-84
2023/07/25 11:28:49;;;;;;;;;;;24.50;44.40;;;23.72;47.43;99996.66;12255562;19;19974;-85
2023/07/25 11:32:52;;;;;;;;;;;24.60;44.50;;;23.57;47.47;99948.72;12255068;19;19922;-84
2023/07/25 11:36:54;;;;;;;;;;;24.70;43.50;;;23.85;47.40;99983.47;12254015;19;19921;-84
2023/07/25 11:40:56;;;;;;;;;;;24.80;44.10;;;24.01;47.25;99984.25;12255694;19;19946;-87
2023/07/25 11:44:57;;;;;;;;;;;24.90;43.90;;;23.97;47.46;99965.13;12245856;19;19923;-87
2023/07/25 11:48:59;;;;;;;;;;;25.00;42.80;;;24.08;47.14;99964.59;12255062;19;19926;-87
2023/07/25 11:53:01;;;;;;;;;;;25.10;43.80;;;24.17;47.16;99977.81;12253201;19;19915;-87
2023/07/25 11:57:06;;;;;;;;;;;25.20;43.90;;;24.14;46.84;99965.72;12250215;19;20269;-88
2023/07/25 12:01:08;;;;;;;;;;;25.10;43.80;;;24.20;46.73;99972.13;12251648;19;20329;-88
2023/07/25 12:05:28;;;;;;;;;;;25.10;43.80;;;24.26;46.69;99980.16;12248275;19;19929;-87
2023/07/25 12:09:29;;;;;;;;;;;25.20;43.90;;;24.31;47.06;99960.91;12249848;19;19919;-87
2023/07/25 12:13:31;;;;;;;;;;;25.30;44.00;;;24.36;46.76;99954.97;12251668;19;19919;-87
2023/07/25 12:17:45;;;;;;;;;;;25.40;44.00;;;24.46;46.37;99967.00;12251766;19;19910;-87
2023/07/25 12:21:47;;;;;;;;;;;25.50;43.80;;;24.49;46.61;99974.66;12254146;19;19911;-87
2023/07/25 12:25:48;;;;;;;;;;;25.50;43.40;;;24.32;46.33;99965.22;12247186;19;19942;-87
2023/07/25 12:29:50;;;;;;;;;;;25.40;43.30;;;24.29;46.60;99977.13;12247344;19;19915;-88
2023/07/25 12:33:51;;;;;;;;;;;25.40;43.60;;;24.22;46.49;99970.91;12248515;19;19940;-88
2023/07/25 12:37:53;;;;;;;;;;;25.30;43.60;;;24.20;46.37;99972.13;12240994;19;20282;-88
2023/07/25 12:41:55;;;;;;;;;;;25.20;43.40;;;24.16;46.15;99958.31;12241113;19;19926;-88
2023/07/25 12:45:57;;;;;;;;;;;25.20;43.60;;;24.20;46.44;99978.28;12237368;19;19928;-88
2023/07/25 12:49:58;;;;;;;;;;;25.10;43.60;;;24.08;46.54;99961.94;12247711;19;19907;-88
2023/07/25 12:54:01;;;;;;;;;;;25.10;43.60;;;24.11;46.05;99963.41;12246652;19;19938;-88
2023/07/25 12:58:02;;;;;;;;;;;25.00;43.70;;;24.19;46.04;99971.28;12244695;19;19923;-88
2023/07/25 13:02:04;;;;;;;;;;;25.00;43.70;;;24.14;46.44;99952.38;12247583;19;19922;-88
2023/07/25 13:06:08;;;;;;;;;;;25.10;43.30;;;24.10;46.50;99929.75;12247507;19;19915;-89
2023/07/25 13:10:13;;;;;;;;;;;25.10;42.80;;;24.04;46.27;99906.53;12251754;19;19936;-88
2023/07/25 13:14:14;;;;;;;;;;;25.10;43.00;;;24.37;46.47;99951.31;12248608;19;19925;-88
2023/07/25 13:18:15;;;;;;;;;;;25.20;43.20;;;24.12;46.33;99908.22;12248053;19;19932;-88
2023/07/25 13:22:17;;;;;;;;;;;25.30;43.40;;;24.49;46.00;99950.63;12259039;19;20268;-88
2023/07/25 13:26:18;;;;;;;;;;;25.40;43.60;;;24.58;46.34;99948.63;12258464;19;19918;-88
2023/07/25 13:30:19;;;;;;;;;;;25.40;43.30;;;24.56;46.03;99945.31;12263464;19;19927;-89
2023/07/25 13:34:22;;;;;;;;;;;25.50;43.10;;;24.60;45.83;99945.75;12258914;19;20261;-88
2023/07/25 13:38:23;;;;;;;;;;;25.60;43.20;;;24.54;45.73;99928.66;12263172;19;19931;-89
2023/07/25 13:42:25;;;;;;;;;;;25.60;41.70;;;24.70;45.85;99963.06;12263628;19;19919;-88
2023/07/25 13:46:26;;;;;;;;;;;25.60;41.30;;;24.66;45.98;99969.84;12257733;19;19918;-89
2023/07/25 13:50:28;;;;;;;;;;;25.60;42.00;;;24.49;45.72;99958.63;12259560;19;19926;-89
2023/07/25 13:54:30;;;;;;;;;;;25.50;42.30;;;24.37;45.92;99940.63;12255703;19;20319;-89
2023/07/25 13:58:36;;;;;;;;;;;25.50;42.30;;;24.52;45.47;99976.13;12255618;19;20373;-88
2023/07/25 14:02:37;;;;;;;;;;;25.40;42.40;;;24.38;45.64;99961.78;12260190;19;19911;-88
2023/07/25 14:06:39;;;;;;;;;;;25.30;42.60;;;24.40;45.31;99970.44;12254885;19;19927;-89
2023/07/25 14:10:41;;;;;;;;;;;25.30;42.70;;;24.37;45.55;99970.00;12259467;19;19907;-89
2023/07/25 14:14:42;;;;;;;;;;;25.30;42.70;;;24.33;45.48;99963.38;12250634;19;20725;-89
2023/07/25 14:18:44;;;;;;;;;;;25.20;42.50;;;24.26;45.47;99956.16;12250313;19;19934;-88
2023/07/25 14:22:45;;;;;;;;;;;25.20;42.80;;;24.35;45.25;99970.19;12254346;19;19914;-88
2023/07/25 14:26:47;;;;;;;;;;;25.20;42.60;;;24.16;45.64;99939.66;12252542;19;20272;-89
2023/07/25 14:30:49;;;;;;;;;;;25.10;42.80;;;24.32;45.72;99975.09;12255582;19;19922;-89
2023/07/25 14:34:50;;;;;;;;;;;25.10;42.80;;;24.35;45.57;99969.34;12246346;19;19914;-91
2023/07/25 14:38:52;;;;;;;;;;;25.10;43.00;;;24.28;45.67;99959.47;12257516;19;20426;-89
2023/07/25 14:42:53;;;;;;;;;;;25.10;42.90;;;24.24;45.35;99942.16;12257561;19;20622;-89
2023/07/25 14:46:55;;;;;;;;;;;25.20;43.00;;;24.34;45.42;99957.88;12253830;19;20606;-88
2023/07/25 14:50:56;;;;;;;;;;;25.20;43.00;;;24.34;45.55;99951.72;12237588;19;19922;-88
2023/07/25 14:54:57;;;;;;;;;;;25.20;42.90;;;24.36;45.48;99950.50;12244231;19;19929;-89
2023/07/25 14:59:03;;;;;;;;;;;25.30;42.30;;;24.29;45.07;99942.41;12247382;19;20270;-89
2023/07/25 15:03:04;;;;;;;;;;;25.30;42.70;;;24.41;45.05;99968.56;12250690;19;19923;-89
2023/07/25 15:07:06;;;;;;;;;;;25.20;42.90;;;24.34;45.19;99949.03;12249908;19;19929;-89
2023/07/25 15:11:07;;;;;;;;;;;25.20;42.90;;;24.40;45.31;99957.06;12252168;19;19926;-89
2023/07/25 15:15:09;;;;;;;;;;;25.20;42.60;;;24.39;45.28;99960.78;12247847;19;20395;-89
2023/07/25 15:19:11;;;;;;;;;;;25.20;42.80;;;24.35;45.03;99938.16;12250619;19;19915;-89
2023/07/25 15:23:12;;;;;;;;;;;25.20;41.90;;;24.25;45.40;99924.34;12252135;19;20369;-89
2023/07/25 15:27:13;;;;;;;;;;;25.20;42.80;;;24.39;44.92;99943.94;12251172;19;20123;-89
2023/07/25 15:31:15;;;;;;;;;;;25.20;42.80;;;24.40;45.29;99948.25;12247219;19;19926;-88
2023/07/25 15:35:16;;;;;;;;;;;25.20;42.80;;;24.41;45.15;99945.41;12249356;19;20629;-88
2023/07/25 15:39:19;;;;;;;;;;;25.20;42.80;;;24.41;45.20;99939.22;12244111;19;19915;-88
2023/07/25 15:43:20;;;;;;;;;;;25.20;42.70;;;24.21;45.04;99910.53;12248647;19;20311;-89
2023/07/25 15:47:23;;;;;;;;;;;25.30;42.70;;;24.35;45.02;99934.66;12248756;19;19926;-87
2023/07/25 15:51:24;;;;;;;;;;;25.20;42.50;;;24.18;44.93;99916.28;12252046;19;19927;-88
2023/07/25 15:55:26;;;;;;;;;;;25.20;42.30;;;24.33;44.88;99939.34;12248989;19;20310;-88
2023/07/25 15:59:27;;;;;;;;;;;25.20;42.70;;;24.22;45.34;99922.88;12251590;19;19918;-88
2023/07/25 16:03:28;;;;;;;;;;;25.20;42.70;;;24.21;45.05;99917.72;12252051;19;20310;-88
2023/07/25 16:07:31;;;;;;;;;;;25.20;42.40;;;24.46;45.01;99950.16;12250966;19;19915;-88
2023/07/25 16:11:32;;;;;;;;;;;25.30;42.70;;;24.51;44.96;99953.91;12253720;19;19918;-88
2023/07/25 16:15:33;;;;;;;;;;;25.30;42.10;;;24.50;45.09;99935.44;12251351;19;19907;-87
2023/07/25 16:19:35;;;;;;;;;;;25.30;42.40;;;24.65;44.73;99944.13;12248690;19;19921;-87
2023/07/25 16:23:36;;;;;;;;;;;25.40;41.30;;;24.66;44.90;99943.13;12247440;19;20408;-87
2023/07/25 16:27:38;;;;;;;;;;;25.50;41.70;;;24.59;44.90;99926.25;12244108;19;20322;-87
2023/07/25 16:31:40;;;;;;;;;;;25.50;42.20;;;24.61;44.56;99932.22;12245531;19;21084;-87
2023/07/25 16:35:41;;;;;;;;;;;25.50;42.10;;;24.59;44.97;99923.56;12246165;19;19951;-87
2023/07/25 16:39:42;;;;;;;;;;;25.50;42.30;;;24.71;44.98;99938.03;12247032;19;20263;-87
2023/07/25 16:43:44;;;;;;;;;;;25.50;42.20;;;24.71;44.82;99938.03;12250139;19;19919;-87
2023/07/25 16:47:45;;;;;;;;;;;25.50;42.10;;;24.69;44.44;99939.25;12243888;19;19940;-87
2023/07/25 16:51:46;;;;;;;;;;;25.50;42.10;;;24.66;44.86;99940.47;12248788;19;19915;-87
2023/07/25 16:55:48;;;;;;;;;;;25.50;42.10;;;24.63;44.79;99937.38;12244356;19;20288;-87
2023/07/25 16:59:49;;;;;;;;;;;25.50;42.20;;;24.62;44.52;99944.53;12247155;19;19931;-87
2023/07/25 17:03:50;;;;;;;;;;;25.50;42.30;;;24.54;44.76;99931.34;12247666;19;20329;-88
2023/07/25 17:07:52;;;;;;;;;;;25.50;42.40;;;24.55;44.73;99933.00;12245314;19;19952;-87
2023/07/25 17:11:53;;;;;;;;;;;25.40;42.20;;;24.59;44.28;99950.25;12246015;19;19930;-88
2023/07/25 17:15:55;;;;;;;;;;;25.40;42.20;;;24.57;44.28;99944.28;12245497;19;19937;-87
2023/07/25 17:19:56;;;;;;;;;;;25.40;42.20;;;24.49;44.50;99941.78;12246815;19;20006;-87
2023/07/25 17:23:58;;;;;;;;;;;25.40;42.30;;;24.36;44.38;99929.16;12247096;19;19930;-87
2023/07/25 17:28:00;;;;;;;;;;;25.30;42.30;;;24.55;44.67;99958.84;12243278;19;20403;-88
2023/07/25 17:32:02;;;;;;;;;;;25.30;42.40;;;24.54;44.43;99968.72;12246361;19;19914;-87
2023/07/25 17:36:03;;;;;;;;;;;25.30;42.40;;;24.51;44.64;99953.09;12246055;19;19907;-87
2023/07/25 17:40:06;;;;;;;;;;;25.30;42.40;;;24.41;44.64;99949.88;12247766;19;20273;-87
2023/07/25 17:44:07;;;;;;;;;;;25.30;42.30;;;24.43;44.14;99961.22;12249790;19;19967;-87
2023/07/25 17:48:09;;;;;;;;;;;25.20;42.30;;;24.23;44.47;99934.38;12241735;19;20007;-87
2023/07/25 17:52:10;;;;;;;;;;;25.20;42.50;;;24.35;44.21;99964.03;12248983;19;19931;-88
2023/07/25 17:56:12;;;;;;;;;;;25.20;42.50;;;24.37;44.41;99959.31;12244752;19;19915;-87
2023/07/25 18:00:14;;;;;;;;;;;25.20;42.50;;;24.40;44.51;99964.28;12252634;19;20322;-87
2023/07/25 18:04:16;;;;;;;;;;;25.10;42.50;;;24.31;44.52;99958.25;12250854;19;19922;-87
2023/07/25 18:08:18;;;;;;;;;;;25.10;42.40;;;24.33;44.05;99966.06;12258006;19;19978;-87
2023/07/25 18:12:20;;;;;;;;;;;25.10;42.40;;;24.22;44.02;99970.91;12261884;19;19923;-87
2023/07/25 18:16:21;;;;;;;;;;;25.10;42.30;;;24.12;44.24;99972.25;12257542;19;20265;-86